sensor_id;sensor_type;location;lat;lon;timestamp;temperature;humidity
9668;DHT22;4872;48.316;10.650;2023-04-24T04:04:28;10.20;99.90
9668;DHT22;4872;48.316;10.650;2023-04-24T04:06:55;10.20;99.90
9668;DHT22;4872;48.316;10.650;2023-04-24T04:09:22;10.80;99.90
9668;DHT22;4872;48.316;10.650;2023-04-24T04:11:48;10.10;99.90
9668;DHT22;4872;48.316;10.650;2023-04-24T04:14:15;10.00;99.90
9668;DHT22;4872;48.316;10.650;2023-04-24T04:16:42;10.00;99.90
9668;DHT22;4872;48.316;10.650;2023-04-24T04:19:08;10.00;99.90
9668;DHT22;4872;48.316;10.650;2023-04-24T04:21:36;10.00;99.90
9668;DHT22;4872;48.316;10.650;2023-04-24T04:24:03;10.10;99.90
9668;DHT22;4872;48.316;10.650;2023-04-24T04:26:31;10.00;99.90
9668;DHT22;4872;48.316;10.650;2023-04-24T04:28:58;10.00;99.90
9668;DHT22;4872;48.316;10.650;2023-04-24T04:31:26;10.10;99.90
9668;DHT22;4872;48.316;10.650;2023-04-24T04:33:52;10.20;99.90
9668;DHT22;4872;48.316;10.650;2023-04-24T04:36:19;10.10;99.90
9668;DHT22;4872;48.316;10.650;2023-04-24T04:38:47;10.10;99.90
9668;DHT22;4872;48.316;10.650;2023-04-24T04:41:14;10.10;99.90
9668;DHT22;4872;48.316;10.650;2023-04-24T04:43:42;10.10;99.90
9668;DHT22;4872;48.316;10.650;2023-04-24T04:46:08;10.10;99.90
9668;DHT22;4872;48.316;10.650;2023-04-24T04:48:36;10.10;99.90
9668;DHT22;4872;48.316;10.650;2023-04-24T04:51:03;10.10;99.90
9668;DHT22;4872;48.316;10.650;2023-04-24T04:53:30;10.10;99.90
9668;DHT22;4872;48.316;10.650;2023-04-24T04:55:58;10.80;99.90
9668;DHT22;4872;48.316;10.650;2023-04-24T04:58:25;10.50;99.90
9668;DHT22;4872;48.316;10.650;2023-04-24T05:00:52;10.10;99.90
9668;DHT22;4872;48.316;10.650;2023-04-24T05:03:18;10.40;99.90
9668;DHT22;4872;48.316;10.650;2023-04-24T05:05:45;10.10;99.90
9668;DHT22;4872;48.316;10.650;2023-04-24T05:08:12;10.10;99.90
9668;DHT22;4872;48.316;10.650;2023-04-24T05:10:38;10.80;99.90
9668;DHT22;4872;48.316;10.650;2023-04-24T05:13:06;10.10;99.90
9668;DHT22;4872;48.316;10.650;2023-04-24T05:15:33;10.10;99.90
9668;DHT22;4872;48.316;10.650;2023-04-24T05:18:00;10.00;99.90
9668;DHT22;4872;48.316;10.650;2023-04-24T05:20:26;10.10;99.90
9668;DHT22;4872;48.316;10.650;2023-04-24T05:22:53;10.00;99.90
9668;DHT22;4872;48.316;10.650;2023-04-24T05:25:20;10.00;99.90
9668;DHT22;4872;48.316;10.650;2023-04-24T05:27:47;10.00;99.90
9668;DHT22;4872;48.316;10.650;2023-04-24T05:30:15;10.00;99.90
9668;DHT22;4872;48.316;10.650;2023-04-24T05:32:41;10.00;99.90
9668;DHT22;4872;48.316;10.650;2023-04-24T05:35:08;10.10;99.90
9668;DHT22;4872;48.316;10.650;2023-04-24T05:37:35;10.30;99.90
9668;DHT22;4872;48.316;10.650;2023-04-24T05:40:02;10.10;99.90
9668;DHT22;4872;48.316;10.650;2023-04-24T05:42:30;10.00;99.90
9668;DHT22;4872;48.316;10.650;2023-04-24T05:44:57;10.00;99.90
9668;DHT22;4872;48.316;10.650;2023-04-24T05:47:25;10.00;99.90
9668;DHT22;4872;48.316;10.650;2023-04-24T05:49:52;10.00;99.90
9668;DHT22;4872;48.316;10.650;2023-04-24T05:52:19;10.00;99.90
9668;DHT22;4872;48.316;10.650;2023-04-24T05:54:46;10.10;99.90
9668;DHT22;4872;48.316;10.650;2023-04-24T05:57:12;10.00;99.90
9668;DHT22;4872;48.316;10.650;2023-04-24T05:59:40;10.00;99.90
9668;DHT22;4872;48.316;10.650;2023-04-24T06:02:07;10.10;99.90
9668;DHT22;4872;48.316;10.650;2023-04-24T06:04:35;10.10;99.90
9668;DHT22;4872;48.316;10.650;2023-04-24T06:07:02;10.10;99.90
9668;DHT22;4872;48.316;10.650;2023-04-24T06:09:29;10.10;99.90
9668;DHT22;4872;48.316;10.650;2023-04-24T06:11:55;10.10;99.90
9668;DHT22;4872;48.316;10.650;2023-04-24T06:14:22;10.10;99.90
9668;DHT22;4872;48.316;10.650;2023-04-24T06:16:49;10.20;99.90
9668;DHT22;4872;48.316;10.650;2023-04-24T06:19:16;10.20;99.90
9668;DHT22;4872;48.316;10.650;2023-04-24T06:21:44;10.20;99.90
9668;DHT22;4872;48.316;10.650;2023-04-24T06:24:13;10.30;99.90
9668;DHT22;4872;48.316;10.650;2023-04-24T06:26:40;10.20;99.90
9668;DHT22;4872;48.316;10.650;2023-04-24T06:29:07;10.30;99.90
9668;DHT22;4872;48.316;10.650;2023-04-24T06:31:34;10.80;99.90
9668;DHT22;4872;48.316;10.650;2023-04-24T06:34:02;10.30;99.90
9668;DHT22;4872;48.316;10.650;2023-04-24T06:36:29;10.30;99.90
9668;DHT22;4872;48.316;10.650;2023-04-24T06:38:57;11.00;99.90
9668;DHT22;4872;48.316;10.650;2023-04-24T06:41:24;10.80;99.90
9668;DHT22;4872;48.316;10.650;2023-04-24T06:43:51;10.40;99.90
9668;DHT22;4872;48.316;10.650;2023-04-24T06:46:18;10.30;99.90
9668;DHT22;4872;48.316;10.650;2023-04-24T06:48:47;10.30;99.90
9668;DHT22;4872;48.316;10.650;2023-04-24T06:51:14;10.40;99.90
9668;DHT22;4872;48.316;10.650;2023-04-24T06:53:41;10.40;99.90
9668;DHT22;4872;48.316;10.650;2023-04-24T06:56:09;10.40;99.90
9668;DHT22;4872;48.316;10.650;2023-04-24T06:58:35;10.50;99.90
9668;DHT22;4872;48.316;10.650;2023-04-24T07:01:02;10.40;99.90
9668;DHT22;4872;48.316;10.650;2023-04-24T07:03:29;10.50;99.90
9668;DHT22;4872;48.316;10.650;2023-04-24T07:05:55;10.40;99.90
9668;DHT22;4872;48.316;10.650;2023-04-24T07:08:23;10.60;99.90
9668;DHT22;4872;48.316;10.650;2023-04-24T07:10:50;10.40;99.90
9668;DHT22;4872;48.316;10.650;2023-04-24T07:13:19;10.80;99.90
9668;DHT22;4872;48.316;10.650;2023-04-24T07:15:45;10.70;99.90
9668;DHT22;4872;48.316;10.650;2023-04-24T07:18:14;10.80;99.90
9668;DHT22;4872;48.316;10.650;2023-04-24T07:20:41;10.30;99.90
9668;DHT22;4872;48.316;10.650;2023-04-24T07:23:07;9.90;99.90
9668;DHT22;4872;48.316;10.650;2023-04-24T07:25:34;9.50;99.90
9668;DHT22;4872;48.316;10.650;2023-04-24T07:28:01;9.40;99.90
9668;DHT22;4872;48.316;10.650;2023-04-24T07:30:29;9.90;99.90
9668;DHT22;4872;48.316;10.650;2023-04-24T07:32:58;9.30;99.90
9668;DHT22;4872;48.316;10.650;2023-04-24T07:35:25;9.20;99.90
9668;DHT22;4872;48.316;10.650;2023-04-24T07:37:52;9.20;99.90
9668;DHT22;4872;48.316;10.650;2023-04-24T07:40:19;9.20;99.90
9668;DHT22;4872;48.316;10.650;2023-04-24T07:42:46;9.30;99.90
9668;DHT22;4872;48.316;10.650;2023-04-24T07:45:13;9.50;99.90
9668;DHT22;4872;48.316;10.650;2023-04-24T07:47:42;9.60;99.90
9668;DHT22;4872;48.316;10.650;2023-04-24T07:50:11;9.70;99.90
9668;DHT22;4872;48.316;10.650;2023-04-24T07:52:38;9.80;99.90
9668;DHT22;4872;48.316;10.650;2023-04-24T07:55:05;9.80;99.90
9668;DHT22;4872;48.316;10.650;2023-04-24T07:57:32;9.80;99.90
9668;DHT22;4872;48.316;10.650;2023-04-24T07:59:59;9.80;99.90
9668;DHT22;4872;48.316;10.650;2023-04-24T08:02:25;9.80;99.90
9668;DHT22;4872;48.316;10.650;2023-04-24T08:04:54;9.80;99.90
9668;DHT22;4872;48.316;10.650;2023-04-24T08:07:21;10.10;99.90
9668;DHT22;4872;48.316;10.650;2023-04-24T08:09:47;10.10;99.90
9668;DHT22;4872;48.316;10.650;2023-04-24T08:12:14;10.20;99.90
9668;DHT22;4872;48.316;10.650;2023-04-24T08:14:41;10.30;99.90
9668;DHT22;4872;48.316;10.650;2023-04-24T08:17:08;10.40;99.90
9668;DHT22;4872;48.316;10.650;2023-04-24T08:19:34;10.80;99.90
9668;DHT22;4872;48.316;10.650;2023-04-24T08:22:03;10.90;99.90
9668;DHT22;4872;48.316;10.650;2023-04-24T08:24:29;11.20;99.90
9668;DHT22;4872;48.316;10.650;2023-04-24T08:26:56;11.20;99.90
9668;DHT22;4872;48.316;10.650;2023-04-24T08:29:23;11.10;99.90
9668;DHT22;4872;48.316;10.650;2023-04-24T08:31:50;10.80;99.90
9668;DHT22;4872;48.316;10.650;2023-04-24T08:34:17;10.50;99.90
9668;DHT22;4872;48.316;10.650;2023-04-24T08:36:44;10.90;99.90
9668;DHT22;4872;48.316;10.650;2023-04-24T08:39:12;10.40;99.90
9668;DHT22;4872;48.316;10.650;2023-04-24T08:41:40;10.60;99.90
9668;DHT22;4872;48.316;10.650;2023-04-24T08:44:09;10.70;99.90
9668;DHT22;4872;48.316;10.650;2023-04-24T08:46:36;10.70;99.90
9668;DHT22;4872;48.316;10.650;2023-04-24T08:49:03;11.20;99.90
9668;DHT22;4872;48.316;10.650;2023-04-24T08:51:31;10.90;99.90
9668;DHT22;4872;48.316;10.650;2023-04-24T08:53:58;11.00;99.90
9668;DHT22;4872;48.316;10.650;2023-04-24T08:56:26;10.90;99.30
9668;DHT22;4872;48.316;10.650;2023-04-24T08:58:55;11.10;99.40
9668;DHT22;4872;48.316;10.650;2023-04-24T09:01:23;10.80;99.80
9668;DHT22;4872;48.316;10.650;2023-04-24T09:03:51;11.30;99.90
9668;DHT22;4872;48.316;10.650;2023-04-24T09:06:21;11.40;99.90
9668;DHT22;4872;48.316;10.650;2023-04-24T09:08:50;11.70;99.70
9668;DHT22;4872;48.316;10.650;2023-04-24T09:11:19;11.50;99.60
9668;DHT22;4872;48.316;10.650;2023-04-24T09:13:48;11.10;98.30
9668;DHT22;4872;48.316;10.650;2023-04-24T09:16:15;11.30;98.80
9668;DHT22;4872;48.316;10.650;2023-04-24T09:18:42;11.10;98.20
9668;DHT22;4872;48.316;10.650;2023-04-24T09:21:09;11.60;98.60
9668;DHT22;4872;48.316;10.650;2023-04-24T09:23:36;11.60;97.60
9668;DHT22;4872;48.316;10.650;2023-04-24T09:26:04;11.90;98.10
9668;DHT22;4872;48.316;10.650;2023-04-24T09:28:32;11.60;98.20
9668;DHT22;4872;48.316;10.650;2023-04-24T09:31:07;11.70;98.20
9668;DHT22;4872;48.316;10.650;2023-04-24T09:33:34;11.80;97.40
9668;DHT22;4872;48.316;10.650;2023-04-24T09:36:01;11.70;97.30
9668;DHT22;4872;48.316;10.650;2023-04-24T09:38:33;11.80;97.80
9668;DHT22;4872;48.316;10.650;2023-04-24T09:41:01;12.00;98.30
9668;DHT22;4872;48.316;10.650;2023-04-24T09:43:29;12.10;98.10
9668;DHT22;4872;48.316;10.650;2023-04-24T09:45:56;12.70;96.70
9668;DHT22;4872;48.316;10.650;2023-04-24T09:48:32;12.20;96.80
9668;DHT22;4872;48.316;10.650;2023-04-24T09:50:59;12.10;97.10
9668;DHT22;4872;48.316;10.650;2023-04-24T09:53:27;12.10;96.60
9668;DHT22;4872;48.316;10.650;2023-04-24T09:55:54;12.60;97.20
9668;DHT22;4872;48.316;10.650;2023-04-24T09:58:25;12.10;97.60
9668;DHT22;4872;48.316;10.650;2023-04-24T10:00:53;12.00;98.00
9668;DHT22;4872;48.316;10.650;2023-04-24T10:03:23;11.80;96.20
9668;DHT22;4872;48.316;10.650;2023-04-24T10:05:52;10.70;95.90
9668;DHT22;4872;48.316;10.650;2023-04-24T10:08:19;10.20;98.00
9668;DHT22;4872;48.316;10.650;2023-04-24T10:10:46;9.30;99.90
9668;DHT22;4872;48.316;10.650;2023-04-24T10:13:14;9.60;99.90
9668;DHT22;4872;48.316;10.650;2023-04-24T10:15:41;9.10;99.90
9668;DHT22;4872;48.316;10.650;2023-04-24T10:18:09;9.10;99.90
9668;DHT22;4872;48.316;10.650;2023-04-24T10:20:37;9.20;99.90
9668;DHT22;4872;48.316;10.650;2023-04-24T10:23:06;9.50;99.90
9668;DHT22;4872;48.316;10.650;2023-04-24T10:25:34;9.30;99.90
9668;DHT22;4872;48.316;10.650;2023-04-24T10:28:02;9.50;99.90
9668;DHT22;4872;48.316;10.650;2023-04-24T10:30:31;9.60;99.90
9668;DHT22;4872;48.316;10.650;2023-04-24T10:33:00;9.70;99.90
9668;DHT22;4872;48.316;10.650;2023-04-24T10:35:30;10.40;99.90
9668;DHT22;4872;48.316;10.650;2023-04-24T10:37:59;10.20;99.90
9668;DHT22;4872;48.316;10.650;2023-04-24T10:40:30;10.60;99.90
9668;DHT22;4872;48.316;10.650;2023-04-24T10:42:57;10.30;99.90
9668;DHT22;4872;48.316;10.650;2023-04-24T10:45:24;10.30;99.90
9668;DHT22;4872;48.316;10.650;2023-04-24T10:47:52;11.00;99.90
9668;DHT22;4872;48.316;10.650;2023-04-24T10:50:19;11.60;99.90
9668;DHT22;4872;48.316;10.650;2023-04-24T10:52:46;10.90;99.90
9668;DHT22;4872;48.316;10.650;2023-04-24T10:55:14;11.00;99.90
9668;DHT22;4872;48.316;10.650;2023-04-24T10:58:01;11.10;99.90
9668;DHT22;4872;48.316;10.650;2023-04-24T11:00:28;11.10;99.90
9668;DHT22;4872;48.316;10.650;2023-04-24T11:02:54;11.00;98.60
9668;DHT22;4872;48.316;10.650;2023-04-24T11:05:22;11.20;98.60
9668;DHT22;4872;48.316;10.650;2023-04-24T11:08:11;11.20;97.50
9668;DHT22;4872;48.316;10.650;2023-04-24T11:10:39;11.30;97.00
9668;DHT22;4872;48.316;10.650;2023-04-24T11:13:08;11.20;95.90
9668;DHT22;4872;48.316;10.650;2023-04-24T11:15:35;11.60;96.20
9668;DHT22;4872;48.316;10.650;2023-04-24T11:18:02;11.60;96.60
9668;DHT22;4872;48.316;10.650;2023-04-24T11:20:29;11.70;95.30
9668;DHT22;4872;48.316;10.650;2023-04-24T11:22:58;11.90;96.10
9668;DHT22;4872;48.316;10.650;2023-04-24T11:25:30;12.00;93.70
9668;DHT22;4872;48.316;10.650;2023-04-24T11:28:03;12.30;95.40
9668;DHT22;4872;48.316;10.650;2023-04-24T11:30:32;12.60;95.90
9668;DHT22;4872;48.316;10.650;2023-04-24T11:33:02;12.80;93.10
9668;DHT22;4872;48.316;10.650;2023-04-24T11:35:29;12.80;92.60
9668;DHT22;4872;48.316;10.650;2023-04-24T11:37:56;12.60;91.70
9668;DHT22;4872;48.316;10.650;2023-04-24T11:40:24;12.10;91.40
9668;DHT22;4872;48.316;10.650;2023-04-24T11:42:52;11.80;90.50
9668;DHT22;4872;48.316;10.650;2023-04-24T11:45:22;11.80;90.70
9668;DHT22;4872;48.316;10.650;2023-04-24T11:47:51;11.70;91.30
9668;DHT22;4872;48.316;10.650;2023-04-24T11:50:19;11.70;91.00
9668;DHT22;4872;48.316;10.650;2023-04-24T11:52:46;11.90;91.40
9668;DHT22;4872;48.316;10.650;2023-04-24T11:55:31;11.90;91.00
9668;DHT22;4872;48.316;10.650;2023-04-24T11:57:59;12.10;91.00
9668;DHT22;4872;48.316;10.650;2023-04-24T12:00:28;12.40;90.60
9668;DHT22;4872;48.316;10.650;2023-04-24T12:03:05;12.50;90.60
9668;DHT22;4872;48.316;10.650;2023-04-24T12:05:32;12.60;92.30
9668;DHT22;4872;48.316;10.650;2023-04-24T12:08:00;12.80;91.00
9668;DHT22;4872;48.316;10.650;2023-04-24T12:10:28;12.60;91.70
9668;DHT22;4872;48.316;10.650;2023-04-24T12:12:56;13.00;91.00
9668;DHT22;4872;48.316;10.650;2023-04-24T12:15:24;12.20;90.50
9668;DHT22;4872;48.316;10.650;2023-04-24T12:17:51;12.30;91.10
9668;DHT22;4872;48.316;10.650;2023-04-24T12:20:24;12.70;90.80
9668;DHT22;4872;48.316;10.650;2023-04-24T12:22:53;12.90;88.60
9668;DHT22;4872;48.316;10.650;2023-04-24T12:25:21;12.40;89.60
9668;DHT22;4872;48.316;10.650;2023-04-24T12:27:53;12.70;89.70
9668;DHT22;4872;48.316;10.650;2023-04-24T12:30:20;12.60;90.10
9668;DHT22;4872;48.316;10.650;2023-04-24T12:32:48;12.70;89.80
9668;DHT22;4872;48.316;10.650;2023-04-24T12:35:21;12.70;89.80
9668;DHT22;4872;48.316;10.650;2023-04-24T12:37:49;12.30;91.00
9668;DHT22;4872;48.316;10.650;2023-04-24T12:40:17;12.50;90.90
9668;DHT22;4872;48.316;10.650;2023-04-24T12:42:45;11.50;91.20
9668;DHT22;4872;48.316;10.650;2023-04-24T12:45:13;11.40;91.00
9668;DHT22;4872;48.316;10.650;2023-04-24T12:47:41;11.50;91.60
9668;DHT22;4872;48.316;10.650;2023-04-24T12:50:09;11.40;89.20
9668;DHT22;4872;48.316;10.650;2023-04-24T12:52:37;11.40;89.00
9668;DHT22;4872;48.316;10.650;2023-04-24T12:55:05;11.70;87.80
9668;DHT22;4872;48.316;10.650;2023-04-24T12:57:33;11.50;85.80
9668;DHT22;4872;48.316;10.650;2023-04-24T13:00:00;11.60;84.20
9668;DHT22;4872;48.316;10.650;2023-04-24T13:02:29;11.80;86.90
9668;DHT22;4872;48.316;10.650;2023-04-24T13:04:57;12.00;86.50
9668;DHT22;4872;48.316;10.650;2023-04-24T13:07:24;12.10;84.30
9668;DHT22;4872;48.316;10.650;2023-04-24T13:09:54;12.00;85.70
9668;DHT22;4872;48.316;10.650;2023-04-24T13:12:21;12.10;83.80
9668;DHT22;4872;48.316;10.650;2023-04-24T13:14:49;12.30;83.30
9668;DHT22;4872;48.316;10.650;2023-04-24T13:17:16;12.40;85.40
9668;DHT22;4872;48.316;10.650;2023-04-24T13:19:43;12.60;82.90
9668;DHT22;4872;48.316;10.650;2023-04-24T13:22:11;12.50;81.60
9668;DHT22;4872;48.316;10.650;2023-04-24T13:24:39;12.60;83.20
9668;DHT22;4872;48.316;10.650;2023-04-24T13:27:08;12.90;80.80
9668;DHT22;4872;48.316;10.650;2023-04-24T13:29:35;12.80;79.20
9668;DHT22;4872;48.316;10.650;2023-04-24T13:32:02;12.50;78.50
9668;DHT22;4872;48.316;10.650;2023-04-24T13:34:29;12.30;78.80
9668;DHT22;4872;48.316;10.650;2023-04-24T13:36:57;12.20;79.40
9668;DHT22;4872;48.316;10.650;2023-04-24T13:39:25;12.10;78.50
9668;DHT22;4872;48.316;10.650;2023-04-24T13:41:52;12.50;79.10
9668;DHT22;4872;48.316;10.650;2023-04-24T13:44:20;12.50;78.70
9668;DHT22;4872;48.316;10.650;2023-04-24T13:46:50;12.60;79.10
9668;DHT22;4872;48.316;10.650;2023-04-24T13:49:17;12.70;76.90
9668;DHT22;4872;48.316;10.650;2023-04-24T13:51:44;12.90;77.80
9668;DHT22;4872;48.316;10.650;2023-04-24T13:54:11;12.40;79.60
9668;DHT22;4872;48.316;10.650;2023-04-24T13:56:39;12.30;80.30
9668;DHT22;4872;48.316;10.650;2023-04-24T13:59:05;12.40;78.80
9668;DHT22;4872;48.316;10.650;2023-04-24T14:01:34;12.80;74.50
9668;DHT22;4872;48.316;10.650;2023-04-24T14:04:00;13.30;75.80
9668;DHT22;4872;48.316;10.650;2023-04-24T14:06:27;13.20;75.50
9668;DHT22;4872;48.316;10.650;2023-04-24T14:08:54;13.30;77.40
9668;DHT22;4872;48.316;10.650;2023-04-24T14:11:21;13.40;73.60
9668;DHT22;4872;48.316;10.650;2023-04-24T14:13:47;13.40;75.70
9668;DHT22;4872;48.316;10.650;2023-04-24T14:16:14;13.20;74.70
9668;DHT22;4872;48.316;10.650;2023-04-24T14:18:42;13.00;74.90
9668;DHT22;4872;48.316;10.650;2023-04-24T14:21:09;13.00;75.40
9668;DHT22;4872;48.316;10.650;2023-04-24T14:23:36;13.30;76.00
9668;DHT22;4872;48.316;10.650;2023-04-24T14:26:02;13.60;77.30
9668;DHT22;4872;48.316;10.650;2023-04-24T14:28:29;13.50;72.90
9668;DHT22;4872;48.316;10.650;2023-04-24T14:30:56;13.30;73.50
9668;DHT22;4872;48.316;10.650;2023-04-24T14:33:23;12.90;75.90
9668;DHT22;4872;48.316;10.650;2023-04-24T14:35:51;12.60;76.50
9668;DHT22;4872;48.316;10.650;2023-04-24T14:38:17;12.50;75.70
9668;DHT22;4872;48.316;10.650;2023-04-24T14:40:44;12.40;78.60
9668;DHT22;4872;48.316;10.650;2023-04-24T14:43:11;12.50;75.90
9668;DHT22;4872;48.316;10.650;2023-04-24T14:45:38;12.40;77.40
9668;DHT22;4872;48.316;10.650;2023-04-24T14:48:06;12.20;76.50
9668;DHT22;4872;48.316;10.650;2023-04-24T14:50:33;12.30;76.40
9668;DHT22;4872;48.316;10.650;2023-04-24T14:53:01;12.50;78.40
9668;DHT22;4872;48.316;10.650;2023-04-24T14:55:28;12.50;76.70
9668;DHT22;4872;48.316;10.650;2023-04-24T14:57:55;12.60;77.60
9668;DHT22;4872;48.316;10.650;2023-04-24T15:00:22;13.00;77.80
9668;DHT22;4872;48.316;10.650;2023-04-24T15:02:49;13.00;74.70
9668;DHT22;4872;48.316;10.650;2023-04-24T15:05:16;12.70;75.20
9668;DHT22;4872;48.316;10.650;2023-04-24T15:07:43;12.40;74.80
9668;DHT22;4872;48.316;10.650;2023-04-24T15:10:12;12.30;74.80
9668;DHT22;4872;48.316;10.650;2023-04-24T15:12:39;13.00;75.30
9668;DHT22;4872;48.316;10.650;2023-04-24T15:15:07;12.80;75.30
9668;DHT22;4872;48.316;10.650;2023-04-24T15:17:34;12.90;72.20
9668;DHT22;4872;48.316;10.650;2023-04-24T15:20:02;13.00;73.40
9668;DHT22;4872;48.316;10.650;2023-04-24T15:22:29;12.80;75.10
9668;DHT22;4872;48.316;10.650;2023-04-24T15:24:55;12.80;73.90
9668;DHT22;4872;48.316;10.650;2023-04-24T15:27:23;12.50;73.70
9668;DHT22;4872;48.316;10.650;2023-04-24T15:29:50;12.20;71.90
9668;DHT22;4872;48.316;10.650;2023-04-24T15:32:19;12.20;71.20
9668;DHT22;4872;48.316;10.650;2023-04-24T15:34:46;12.70;70.70
9668;DHT22;4872;48.316;10.650;2023-04-24T15:37:13;12.80;71.50
9668;DHT22;4872;48.316;10.650;2023-04-24T15:39:41;12.60;71.50
9668;DHT22;4872;48.316;10.650;2023-04-24T15:42:11;12.40;71.20
9668;DHT22;4872;48.316;10.650;2023-04-24T15:44:39;13.90;72.50
9668;DHT22;4872;48.316;10.650;2023-04-24T15:47:07;12.10;69.80
9668;DHT22;4872;48.316;10.650;2023-04-24T15:49:37;12.20;70.20
9668;DHT22;4872;48.316;10.650;2023-04-24T15:52:05;12.50;69.30
9668;DHT22;4872;48.316;10.650;2023-04-24T15:54:35;12.40;71.40
9668;DHT22;4872;48.316;10.650;2023-04-24T15:57:03;12.20;72.00
9668;DHT22;4872;48.316;10.650;2023-04-24T15:59:30;11.80;68.70
9668;DHT22;4872;48.316;10.650;2023-04-24T16:01:58;13.10;72.20
9668;DHT22;4872;48.316;10.650;2023-04-24T16:04:25;11.60;69.40
9668;DHT22;4872;48.316;10.650;2023-04-24T16:06:52;11.60;70.20
9668;DHT22;4872;48.316;10.650;2023-04-24T16:09:19;11.60;70.30
9668;DHT22;4872;48.316;10.650;2023-04-24T16:11:45;11.90;70.60
9668;DHT22;4872;48.316;10.650;2023-04-24T16:14:12;11.70;71.20
9668;DHT22;4872;48.316;10.650;2023-04-24T16:16:40;11.70;71.20
9668;DHT22;4872;48.316;10.650;2023-04-24T16:19:08;11.80;72.70
9668;DHT22;4872;48.316;10.650;2023-04-24T16:21:35;12.30;74.30
9668;DHT22;4872;48.316;10.650;2023-04-24T16:24:02;11.80;73.60
9668;DHT22;4872;48.316;10.650;2023-04-24T16:26:28;12.10;72.30
9668;DHT22;4872;48.316;10.650;2023-04-24T16:28:55;12.50;72.50
9668;DHT22;4872;48.316;10.650;2023-04-24T16:31:22;12.50;74.00
9668;DHT22;4872;48.316;10.650;2023-04-24T16:33:49;12.40;70.50
9668;DHT22;4872;48.316;10.650;2023-04-24T16:36:17;12.20;69.60
9668;DHT22;4872;48.316;10.650;2023-04-24T16:38:44;12.20;70.40
9668;DHT22;4872;48.316;10.650;2023-04-24T16:41:10;12.20;69.40
9668;DHT22;4872;48.316;10.650;2023-04-24T16:43:37;12.50;70.40
9668;DHT22;4872;48.316;10.650;2023-04-24T16:46:04;12.90;69.80
9668;DHT22;4872;48.316;10.650;2023-04-24T16:48:32;12.50;68.90
9668;DHT22;4872;48.316;10.650;2023-04-24T16:50:59;12.50;68.00
9668;DHT22;4872;48.316;10.650;2023-04-24T16:53:27;12.50;69.20
9668;DHT22;4872;48.316;10.650;2023-04-24T16:55:54;11.90;70.50
9668;DHT22;4872;48.316;10.650;2023-04-24T16:58:21;11.60;69.50
9668;DHT22;4872;48.316;10.650;2023-04-24T17:00:47;11.80;69.40
9668;DHT22;4872;48.316;10.650;2023-04-24T17:03:14;11.80;69.60
9668;DHT22;4872;48.316;10.650;2023-04-24T17:05:41;11.50;70.20
9668;DHT22;4872;48.316;10.650;2023-04-24T17:08:08;11.50;72.20
9668;DHT22;4872;48.316;10.650;2023-04-24T17:10:36;11.20;73.50
9668;DHT22;4872;48.316;10.650;2023-04-24T17:13:03;11.50;74.80
9668;DHT22;4872;48.316;10.650;2023-04-24T17:15:30;11.70;75.30
9668;DHT22;4872;48.316;10.650;2023-04-24T17:17:57;11.00;75.10
9668;DHT22;4872;48.316;10.650;2023-04-24T17:20:23;11.30;75.50
9668;DHT22;4872;48.316;10.650;2023-04-24T17:22:50;11.00;76.50
9668;DHT22;4872;48.316;10.650;2023-04-24T17:25:18;11.50;77.90
9668;DHT22;4872;48.316;10.650;2023-04-24T17:27:47;10.80;77.70
9668;DHT22;4872;48.316;10.650;2023-04-24T17:30:14;11.20;76.90
9668;DHT22;4872;48.316;10.650;2023-04-24T17:32:42;10.70;76.80
9668;DHT22;4872;48.316;10.650;2023-04-24T17:35:09;10.70;76.70
9668;DHT22;4872;48.316;10.650;2023-04-24T17:37:36;10.70;75.70
9668;DHT22;4872;48.316;10.650;2023-04-24T17:40:03;10.80;75.80
9668;DHT22;4872;48.316;10.650;2023-04-24T17:42:30;10.70;75.30
9668;DHT22;4872;48.316;10.650;2023-04-24T17:44:58;10.80;74.80
9668;DHT22;4872;48.316;10.650;2023-04-24T17:47:25;10.70;75.80
9668;DHT22;4872;48.316;10.650;2023-04-24T17:49:55;10.70;75.80
9668;DHT22;4872;48.316;10.650;2023-04-24T17:52:21;10.60;76.30
9668;DHT22;4872;48.316;10.650;2023-04-24T17:54:48;10.60;76.90
9668;DHT22;4872;48.316;10.650;2023-04-24T17:57:15;10.70;77.30
9668;DHT22;4872;48.316;10.650;2023-04-24T17:59:42;10.80;77.30
9668;DHT22;4872;48.316;10.650;2023-04-24T18:02:10;10.80;77.00
9668;DHT22;4872;48.316;10.650;2023-04-24T18:04:37;10.90;77.20
9668;DHT22;4872;48.316;10.650;2023-04-24T18:07:04;10.90;77.20
9668;DHT22;4872;48.316;10.650;2023-04-24T18:09:31;11.40;77.80
9668;DHT22;4872;48.316;10.650;2023-04-24T18:11:58;11.00;77.50
9668;DHT22;4872;48.316;10.650;2023-04-24T18:14:25;11.00;77.40
9668;DHT22;4872;48.316;10.650;2023-04-24T18:16:52;11.10;77.30
9668;DHT22;4872;48.316;10.650;2023-04-24T18:19:20;11.00;78.30
9668;DHT22;4872;48.316;10.650;2023-04-24T18:21:47;11.00;77.30
9668;DHT22;4872;48.316;10.650;2023-04-24T18:24:14;11.50;78.70
9668;DHT22;4872;48.316;10.650;2023-04-24T18:26:41;10.90;78.10
9668;DHT22;4872;48.316;10.650;2023-04-24T18:29:07;11.40;79.30
9668;DHT22;4872;48.316;10.650;2023-04-24T18:31:34;10.80;79.10
9668;DHT22;4872;48.316;10.650;2023-04-24T18:34:01;10.80;78.80
9668;DHT22;4872;48.316;10.650;2023-04-24T18:36:29;10.70;79.30
9668;DHT22;4872;48.316;10.650;2023-04-24T18:38:57;10.70;79.00
9668;DHT22;4872;48.316;10.650;2023-04-24T18:41:24;10.60;78.70
9668;DHT22;4872;48.316;10.650;2023-04-24T18:43:50;10.50;78.30
9668;DHT22;4872;48.316;10.650;2023-04-24T18:46:17;10.60;78.40
9668;DHT22;4872;48.316;10.650;2023-04-24T18:48:44;10.50;78.20
9668;DHT22;4872;48.316;10.650;2023-04-24T18:51:11;10.50;78.00
9668;DHT22;4872;48.316;10.650;2023-04-24T18:53:39;10.60;77.80
9668;DHT22;4872;48.316;10.650;2023-04-24T18:56:06;10.50;77.50
9668;DHT22;4872;48.316;10.650;2023-04-24T18:58:33;10.60;77.60
9668;DHT22;4872;48.316;10.650;2023-04-24T19:00:59;10.50;77.20
9668;DHT22;4872;48.316;10.650;2023-04-24T19:03:26;10.50;77.20
9668;DHT22;4872;48.316;10.650;2023-04-24T19:05:54;10.50;77.40
9668;DHT22;4872;48.316;10.650;2023-04-24T19:08:20;10.40;77.10
9668;DHT22;4872;48.316;10.650;2023-04-24T19:10:49;10.50;78.10
9668;DHT22;4872;48.316;10.650;2023-04-24T19:13:15;10.40;78.40
9668;DHT22;4872;48.316;10.650;2023-04-24T19:15:43;10.80;78.80
9668;DHT22;4872;48.316;10.650;2023-04-24T19:18:09;10.40;77.60
9668;DHT22;4872;48.316;10.650;2023-04-24T19:20:36;10.40;77.70
9668;DHT22;4872;48.316;10.650;2023-04-24T19:23:03;10.40;77.70
9668;DHT22;4872;48.316;10.650;2023-04-24T19:25:30;10.40;77.50
9668;DHT22;4872;48.316;10.650;2023-04-24T19:27:58;10.40;78.40
9668;DHT22;4872;48.316;10.650;2023-04-24T19:30:25;10.40;79.80
9668;DHT22;4872;48.316;10.650;2023-04-24T19:32:52;10.30;80.30
9668;DHT22;4872;48.316;10.650;2023-04-24T19:35:18;10.30;80.80
9668;DHT22;4872;48.316;10.650;2023-04-24T19:37:45;10.20;81.60
9668;DHT22;4872;48.316;10.650;2023-04-24T19:40:12;10.20;81.70
9668;DHT22;4872;48.316;10.650;2023-04-24T19:42:39;10.10;80.80
9668;DHT22;4872;48.316;10.650;2023-04-24T19:45:10;10.50;81.00
9668;DHT22;4872;48.316;10.650;2023-04-24T19:47:37;10.10;80.30
9668;DHT22;4872;48.316;10.650;2023-04-24T19:50:05;10.10;80.10
9668;DHT22;4872;48.316;10.650;2023-04-24T19:52:32;10.10;80.20